sensor_id;sensor_type;location;lat;lon;timestamp;P1;durP1;ratioP1;P2;durP2;ratioP2
17365;SDS011;8800;50.118;9.900;2023-08-17T00:01:26;2.75;;;1.30;;
17365;SDS011;8800;50.118;9.900;2023-08-17T00:03:54;4.57;;;1.27;;
17365;SDS011;8800;50.118;9.900;2023-08-17T00:06:20;2.58;;;1.10;;
17365;SDS011;8800;50.118;9.900;2023-08-17T00:08:47;1.83;;;1.02;;
17365;SDS011;8800;50.118;9.900;2023-08-17T00:11:13;4.68;;;1.35;;
17365;SDS011;8800;50.118;9.900;2023-08-17T00:13:41;4.43;;;1.40;;
17365;SDS011;8800;50.118;9.900;2023-08-17T00:16:07;3.95;;;1.80;;
17365;SDS011;8800;50.118;9.900;2023-08-17T00:18:34;4.07;;;1.70;;
17365;SDS011;8800;50.118;9.900;2023-08-17T00:21:02;2.78;;;1.30;;
17365;SDS011;8800;50.118;9.900;2023-08-17T00:23:29;3.47;;;1.30;;
17365;SDS011;8800;50.118;9.900;2023-08-17T00:25:55;4.50;;;1.65;;
17365;SDS011;8800;50.118;9.900;2023-08-17T00:28:22;2.10;;;1.35;;
17365;SDS011;8800;50.118;9.900;2023-08-17T00:30:48;4.43;;;1.77;;
17365;SDS011;8800;50.118;9.900;2023-08-17T00:33:15;2.38;;;1.30;;
17365;SDS011;8800;50.118;9.900;2023-08-17T00:35:42;2.63;;;1.40;;
17365;SDS011;8800;50.118;9.900;2023-08-17T00:38:12;6.13;;;1.70;;
17365;SDS011;8800;50.118;9.900;2023-08-17T00:40:38;3.25;;;1.65;;
17365;SDS011;8800;50.118;9.900;2023-08-17T00:43:05;5.10;;;1.70;;
17365;SDS011;8800;50.118;9.900;2023-08-17T00:45:31;3.85;;;1.85;;
17365;SDS011;8800;50.118;9.900;2023-08-17T00:47:58;4.90;;;1.83;;
17365;SDS011;8800;50.118;9.900;2023-08-17T00:50:25;3.88;;;1.70;;
17365;SDS011;8800;50.118;9.900;2023-08-17T00:52:52;2.50;;;1.52;;
17365;SDS011;8800;50.118;9.900;2023-08-17T00:55:20;4.97;;;1.73;;
17365;SDS011;8800;50.118;9.900;2023-08-17T00:57:46;4.93;;;1.70;;
17365;SDS011;8800;50.118;9.900;2023-08-17T01:00:13;2.85;;;1.48;;
17365;SDS011;8800;50.118;9.900;2023-08-17T01:02:40;4.63;;;1.75;;
17365;SDS011;8800;50.118;9.900;2023-08-17T01:05:07;2.83;;;2.05;;
17365;SDS011;8800;50.118;9.900;2023-08-17T01:07:34;4.20;;;1.83;;
17365;SDS011;8800;50.118;9.900;2023-08-17T01:10:01;5.05;;;1.95;;
17365;SDS011;8800;50.118;9.900;2023-08-17T01:12:29;6.38;;;2.17;;
17365;SDS011;8800;50.118;9.900;2023-08-17T01:14:59;2.22;;;1.73;;
17365;SDS011;8800;50.118;9.900;2023-08-17T01:17:29;3.60;;;1.42;;
17365;SDS011;8800;50.118;9.900;2023-08-17T01:19:56;5.13;;;1.70;;
17365;SDS011;8800;50.118;9.900;2023-08-17T01:22:24;6.07;;;1.95;;
17365;SDS011;8800;50.118;9.900;2023-08-17T01:24:55;4.68;;;1.80;;
17365;SDS011;8800;50.118;9.900;2023-08-17T01:27:23;2.15;;;1.40;;
17365;SDS011;8800;50.118;9.900;2023-08-17T01:29:49;6.35;;;1.67;;
17365;SDS011;8800;50.118;9.900;2023-08-17T01:32:17;3.08;;;2.03;;
17365;SDS011;8800;50.118;9.900;2023-08-17T01:34:49;3.33;;;1.90;;
17365;SDS011;8800;50.118;9.900;2023-08-17T01:37:17;3.72;;;1.80;;
17365;SDS011;8800;50.118;9.900;2023-08-17T01:39:44;3.63;;;1.63;;
17365;SDS011;8800;50.118;9.900;2023-08-17T01:42:14;7.50;;;1.80;;
17365;SDS011;8800;50.118;9.900;2023-08-17T01:44:41;1.92;;;1.50;;
17365;SDS011;8800;50.118;9.900;2023-08-17T01:47:08;4.85;;;1.90;;
17365;SDS011;8800;50.118;9.900;2023-08-17T01:49:35;1.92;;;1.55;;
17365;SDS011;8800;50.118;9.900;2023-08-17T01:52:02;3.80;;;1.55;;
17365;SDS011;8800;50.118;9.900;2023-08-17T01:54:28;3.70;;;1.88;;
17365;SDS011;8800;50.118;9.900;2023-08-17T01:56:55;4.55;;;1.70;;
17365;SDS011;8800;50.118;9.900;2023-08-17T01:59:23;5.25;;;1.75;;
17365;SDS011;8800;50.118;9.900;2023-08-17T02:01:52;4.30;;;1.60;;
17365;SDS011;8800;50.118;9.900;2023-08-17T02:04:18;2.53;;;1.75;;
17365;SDS011;8800;50.118;9.900;2023-08-17T02:06:45;4.95;;;1.80;;
17365;SDS011;8800;50.118;9.900;2023-08-17T02:09:11;3.30;;;1.58;;
17365;SDS011;8800;50.118;9.900;2023-08-17T02:11:38;3.40;;;1.70;;
17365;SDS011;8800;50.118;9.900;2023-08-17T02:14:04;3.67;;;1.83;;
17365;SDS011;8800;50.118;9.900;2023-08-17T02:16:32;6.72;;;2.10;;
17365;SDS011;8800;50.118;9.900;2023-08-17T02:18:59;4.80;;;2.20;;
17365;SDS011;8800;50.118;9.900;2023-08-17T02:21:26;4.72;;;2.20;;
17365;SDS011;8800;50.118;9.900;2023-08-17T02:23:52;5.25;;;2.50;;
17365;SDS011;8800;50.118;9.900;2023-08-17T02:26:19;6.07;;;2.50;;
17365;SDS011;8800;50.118;9.900;2023-08-17T02:28:45;5.43;;;2.22;;
17365;SDS011;8800;50.118;9.900;2023-08-17T02:31:12;4.20;;;2.10;;
17365;SDS011;8800;50.118;9.900;2023-08-17T02:33:40;3.75;;;2.45;;
17365;SDS011;8800;50.118;9.900;2023-08-17T02:36:06;3.38;;;2.33;;
17365;SDS011;8800;50.118;9.900;2023-08-17T02:38:33;4.28;;;2.40;;
17365;SDS011;8800;50.118;9.900;2023-08-17T02:41:00;4.15;;;2.28;;
17365;SDS011;8800;50.118;9.900;2023-08-17T02:43:26;5.50;;;2.47;;
17365;SDS011;8800;50.118;9.900;2023-08-17T02:45:53;5.10;;;2.13;;
17365;SDS011;8800;50.118;9.900;2023-08-17T02:48:19;2.83;;;1.85;;
17365;SDS011;8800;50.118;9.900;2023-08-17T02:50:47;4.65;;;2.08;;
17365;SDS011;8800;50.118;9.900;2023-08-17T02:53:14;6.47;;;2.20;;
17365;SDS011;8800;50.118;9.900;2023-08-17T02:55:40;7.90;;;2.08;;
17365;SDS011;8800;50.118;9.900;2023-08-17T02:58:07;5.50;;;2.25;;
17365;SDS011;8800;50.118;9.900;2023-08-17T03:00:34;4.35;;;2.47;;
17365;SDS011;8800;50.118;9.900;2023-08-17T03:03:00;5.82;;;2.20;;
17365;SDS011;8800;50.118;9.900;2023-08-17T03:05:27;4.35;;;2.25;;
17365;SDS011;8800;50.118;9.900;2023-08-17T03:07:55;2.30;;;2.10;;
17365;SDS011;8800;50.118;9.900;2023-08-17T03:10:21;3.65;;;2.17;;
17365;SDS011;8800;50.118;9.900;2023-08-17T03:12:50;4.20;;;2.55;;
17365;SDS011;8800;50.118;9.900;2023-08-17T03:15:16;4.18;;;2.42;;
17365;SDS011;8800;50.118;9.900;2023-08-17T03:17:43;6.57;;;2.40;;
17365;SDS011;8800;50.118;9.900;2023-08-17T03:20:09;7.70;;;2.22;;
17365;SDS011;8800;50.118;9.900;2023-08-17T03:22:36;4.32;;;2.60;;
17365;SDS011;8800;50.118;9.900;2023-08-17T03:25:05;3.72;;;2.53;;
17365;SDS011;8800;50.118;9.900;2023-08-17T03:27:32;10.32;;;2.75;;
17365;SDS011;8800;50.118;9.900;2023-08-17T03:29:58;5.45;;;2.50;;
17365;SDS011;8800;50.118;9.900;2023-08-17T03:32:25;6.32;;;2.40;;
17365;SDS011;8800;50.118;9.900;2023-08-17T03:34:51;9.00;;;2.80;;
17365;SDS011;8800;50.118;9.900;2023-08-17T03:37:18;5.47;;;2.80;;
17365;SDS011;8800;50.118;9.900;2023-08-17T03:39:44;4.15;;;2.67;;
17365;SDS011;8800;50.118;9.900;2023-08-17T03:42:12;5.65;;;2.75;;
17365;SDS011;8800;50.118;9.900;2023-08-17T03:44:39;7.97;;;2.90;;
17365;SDS011;8800;50.118;9.900;2023-08-17T03:47:06;5.75;;;2.45;;
17365;SDS011;8800;50.118;9.900;2023-08-17T03:49:32;7.40;;;2.65;;
17365;SDS011;8800;50.118;9.900;2023-08-17T03:51:58;5.18;;;2.60;;
17365;SDS011;8800;50.118;9.900;2023-08-17T03:54:25;3.42;;;2.20;;
17365;SDS011;8800;50.118;9.900;2023-08-17T03:56:51;5.40;;;2.65;;
17365;SDS011;8800;50.118;9.900;2023-08-17T03:59:19;4.65;;;2.45;;
17365;SDS011;8800;50.118;9.900;2023-08-17T04:01:46;5.28;;;2.60;;
17365;SDS011;8800;50.118;9.900;2023-08-17T04:04:12;4.88;;;2.50;;
17365;SDS011;8800;50.118;9.900;2023-08-17T04:06:39;3.90;;;2.50;;
17365;SDS011;8800;50.118;9.900;2023-08-17T04:09:06;5.13;;;2.60;;
17365;SDS011;8800;50.118;9.900;2023-08-17T04:11:34;5.75;;;2.38;;
17365;SDS011;8800;50.118;9.900;2023-08-17T04:14:01;6.35;;;2.30;;
17365;SDS011;8800;50.118;9.900;2023-08-17T04:16:29;8.05;;;2.60;;
17365;SDS011;8800;50.118;9.900;2023-08-17T04:18:55;5.15;;;2.40;;
17365;SDS011;8800;50.118;9.900;2023-08-17T04:21:22;3.20;;;2.35;;
17365;SDS011;8800;50.118;9.900;2023-08-17T04:23:48;7.00;;;2.50;;
17365;SDS011;8800;50.118;9.900;2023-08-17T04:26:15;5.55;;;1.95;;
17365;SDS011;8800;50.118;9.900;2023-08-17T04:28:41;4.47;;;2.30;;
17365;SDS011;8800;50.118;9.900;2023-08-17T04:31:08;5.57;;;2.22;;
17365;SDS011;8800;50.118;9.900;2023-08-17T04:33:36;4.88;;;2.00;;
17365;SDS011;8800;50.118;9.900;2023-08-17T04:36:03;5.60;;;2.30;;
17365;SDS011;8800;50.118;9.900;2023-08-17T04:38:29;7.20;;;2.47;;
17365;SDS011;8800;50.118;9.900;2023-08-17T04:40:56;4.07;;;2.20;;
17365;SDS011;8800;50.118;9.900;2023-08-17T04:43:23;6.50;;;1.90;;
17365;SDS011;8800;50.118;9.900;2023-08-17T04:45:49;8.55;;;2.30;;
17365;SDS011;8800;50.118;9.900;2023-08-17T04:48:16;4.38;;;2.22;;
17365;SDS011;8800;50.118;9.900;2023-08-17T04:50:44;10.00;;;2.42;;
17365;SDS011;8800;50.118;9.900;2023-08-17T04:53:11;5.85;;;2.40;;
17365;SDS011;8800;50.118;9.900;2023-08-17T04:55:38;8.80;;;2.90;;
17365;SDS011;8800;50.118;9.900;2023-08-17T04:58:05;5.25;;;2.67;;
17365;SDS011;8800;50.118;9.900;2023-08-17T05:00:31;4.22;;;2.67;;
17365;SDS011;8800;50.118;9.900;2023-08-17T05:02:58;6.15;;;2.75;;
17365;SDS011;8800;50.118;9.900;2023-08-17T05:05:25;6.35;;;2.67;;
17365;SDS011;8800;50.118;9.900;2023-08-17T05:07:53;6.97;;;3.17;;
17365;SDS011;8800;50.118;9.900;2023-08-17T05:10:20;6.75;;;2.92;;
17365;SDS011;8800;50.118;9.900;2023-08-17T05:12:46;8.88;;;2.70;;
17365;SDS011;8800;50.118;9.900;2023-08-17T05:15:13;7.07;;;2.50;;
17365;SDS011;8800;50.118;9.900;2023-08-17T05:17:39;5.53;;;3.05;;
17365;SDS011;8800;50.118;9.900;2023-08-17T05:20:06;5.40;;;2.80;;
17365;SDS011;8800;50.118;9.900;2023-08-17T05:22:33;4.80;;;2.72;;
17365;SDS011;8800;50.118;9.900;2023-08-17T05:25:01;6.80;;;2.92;;
17365;SDS011;8800;50.118;9.900;2023-08-17T05:27:27;5.78;;;2.97;;
17365;SDS011;8800;50.118;9.900;2023-08-17T05:29:54;6.72;;;3.33;;
17365;SDS011;8800;50.118;9.900;2023-08-17T05:32:20;7.82;;;3.60;;
17365;SDS011;8800;50.118;9.900;2023-08-17T05:34:47;11.80;;;3.72;;
17365;SDS011;8800;50.118;9.900;2023-08-17T05:37:13;7.93;;;4.47;;
17365;SDS011;8800;50.118;9.900;2023-08-17T05:39:40;8.50;;;4.82;;
17365;SDS011;8800;50.118;9.900;2023-08-17T05:42:08;8.95;;;4.18;;
17365;SDS011;8800;50.118;9.900;2023-08-17T05:44:35;8.98;;;5.13;;
17365;SDS011;8800;50.118;9.900;2023-08-17T05:47:02;9.68;;;4.78;;
17365;SDS011;8800;50.118;9.900;2023-08-17T05:49:28;7.05;;;4.50;;
17365;SDS011;8800;50.118;9.900;2023-08-17T05:51:55;9.07;;;4.93;;
17365;SDS011;8800;50.118;9.900;2023-08-17T05:54:22;7.15;;;4.25;;
17365;SDS011;8800;50.118;9.900;2023-08-17T05:56:48;6.95;;;4.20;;
17365;SDS011;8800;50.118;9.900;2023-08-17T05:59:16;9.52;;;3.55;;
17365;SDS011;8800;50.118;9.900;2023-08-17T06:01:43;6.65;;;3.55;;
17365;SDS011;8800;50.118;9.900;2023-08-17T06:04:09;9.02;;;4.20;;
17365;SDS011;8800;50.118;9.900;2023-08-17T06:06:36;6.97;;;4.30;;
17365;SDS011;8800;50.118;9.900;2023-08-17T06:09:04;7.85;;;3.60;;
17365;SDS011;8800;50.118;9.900;2023-08-17T06:11:32;7.13;;;4.20;;
17365;SDS011;8800;50.118;9.900;2023-08-17T06:13:59;8.88;;;4.07;;
17365;SDS011;8800;50.118;9.900;2023-08-17T06:16:27;5.90;;;3.72;;
17365;SDS011;8800;50.118;9.900;2023-08-17T06:18:54;6.85;;;4.15;;
17365;SDS011;8800;50.118;9.900;2023-08-17T06:21:20;7.25;;;3.45;;
17365;SDS011;8800;50.118;9.900;2023-08-17T06:23:47;5.55;;;3.60;;
17365;SDS011;8800;50.118;9.900;2023-08-17T06:26:13;9.23;;;3.88;;
17365;SDS011;8800;50.118;9.900;2023-08-17T06:28:40;7.75;;;4.20;;
17365;SDS011;8800;50.118;9.900;2023-08-17T06:31:06;7.70;;;3.28;;
17365;SDS011;8800;50.118;9.900;2023-08-17T06:33:34;6.03;;;3.20;;
17365;SDS011;8800;50.118;9.900;2023-08-17T06:36:04;5.22;;;3.33;;
17365;SDS011;8800;50.118;9.900;2023-08-17T06:38:30;4.72;;;3.58;;
17365;SDS011;8800;50.118;9.900;2023-08-17T06:40:57;7.03;;;3.13;;
17365;SDS011;8800;50.118;9.900;2023-08-17T06:43:23;7.68;;;2.97;;
17365;SDS011;8800;50.118;9.900;2023-08-17T06:45:50;5.30;;;2.95;;
17365;SDS011;8800;50.118;9.900;2023-08-17T06:48:17;5.18;;;3.00;;
17365;SDS011;8800;50.118;9.900;2023-08-17T06:50:44;4.95;;;2.70;;
17365;SDS011;8800;50.118;9.900;2023-08-17T06:53:11;5.63;;;3.03;;
17365;SDS011;8800;50.118;9.900;2023-08-17T06:55:37;7.70;;;3.13;;
17365;SDS011;8800;50.118;9.900;2023-08-17T06:58:04;5.70;;;2.63;;
17365;SDS011;8800;50.118;9.900;2023-08-17T07:00:31;5.43;;;3.08;;
17365;SDS011;8800;50.118;9.900;2023-08-17T07:02:57;5.50;;;2.30;;
17365;SDS011;8800;50.118;9.900;2023-08-17T07:05:24;7.28;;;3.10;;
17365;SDS011;8800;50.118;9.900;2023-08-17T07:07:52;5.57;;;2.92;;
17365;SDS011;8800;50.118;9.900;2023-08-17T07:10:19;4.40;;;2.80;;
17365;SDS011;8800;50.118;9.900;2023-08-17T07:12:45;7.18;;;2.80;;
17365;SDS011;8800;50.118;9.900;2023-08-17T07:15:12;4.00;;;2.80;;
17365;SDS011;8800;50.118;9.900;2023-08-17T07:17:38;4.28;;;2.55;;
17365;SDS011;8800;50.118;9.900;2023-08-17T07:20:05;6.75;;;2.63;;
17365;SDS011;8800;50.118;9.900;2023-08-17T07:22:32;5.40;;;2.58;;
17365;SDS011;8800;50.118;9.900;2023-08-17T07:25:07;2.80;;;2.45;;
17365;SDS011;8800;50.118;9.900;2023-08-17T07:27:34;3.83;;;2.75;;
17365;SDS011;8800;50.118;9.900;2023-08-17T07:30:01;5.88;;;2.70;;
17365;SDS011;8800;50.118;9.900;2023-08-17T07:32:28;4.00;;;2.60;;
17365;SDS011;8800;50.118;9.900;2023-08-17T07:34:54;4.95;;;3.00;;
17365;SDS011;8800;50.118;9.900;2023-08-17T07:37:21;4.97;;;2.60;;
17365;SDS011;8800;50.118;9.900;2023-08-17T07:39:48;4.63;;;2.60;;
17365;SDS011;8800;50.118;9.900;2023-08-17T07:42:15;4.20;;;2.47;;
17365;SDS011;8800;50.118;9.900;2023-08-17T07:44:42;6.07;;;2.90;;
17365;SDS011;8800;50.118;9.900;2023-08-17T07:47:08;3.67;;;2.42;;
17365;SDS011;8800;50.118;9.900;2023-08-17T07:49:35;4.85;;;2.45;;
17365;SDS011;8800;50.118;9.900;2023-08-17T07:52:02;5.00;;;2.55;;
17365;SDS011;8800;50.118;9.900;2023-08-17T07:54:28;4.50;;;2.50;;
17365;SDS011;8800;50.118;9.900;2023-08-17T07:56:55;3.72;;;2.67;;
17365;SDS011;8800;50.118;9.900;2023-08-17T07:59:22;7.55;;;2.83;;
17365;SDS011;8800;50.118;9.900;2023-08-17T08:01:49;4.45;;;2.40;;
17365;SDS011;8800;50.118;9.900;2023-08-17T08:04:15;4.15;;;2.75;;
17365;SDS011;8800;50.118;9.900;2023-08-17T08:06:42;3.83;;;2.97;;
17365;SDS011;8800;50.118;9.900;2023-08-17T08:09:08;7.82;;;2.90;;
17365;SDS011;8800;50.118;9.900;2023-08-17T08:11:35;6.28;;;3.00;;
17365;SDS011;8800;50.118;9.900;2023-08-17T08:14:02;6.68;;;3.22;;
17365;SDS011;8800;50.118;9.900;2023-08-17T08:16:30;4.90;;;3.28;;
17365;SDS011;8800;50.118;9.900;2023-08-17T08:18:56;6.35;;;3.13;;
17365;SDS011;8800;50.118;9.900;2023-08-17T08:21:23;4.32;;;2.97;;
17365;SDS011;8800;50.118;9.900;2023-08-17T08:23:49;5.90;;;3.40;;
17365;SDS011;8800;50.118;9.900;2023-08-17T08:26:16;5.07;;;3.22;;
17365;SDS011;8800;50.118;9.900;2023-08-17T08:28:42;5.72;;;3.15;;
17365;SDS011;8800;50.118;9.900;2023-08-17T08:31:09;4.35;;;3.35;;
17365;SDS011;8800;50.118;9.900;2023-08-17T08:33:37;6.63;;;3.70;;
17365;SDS011;8800;50.118;9.900;2023-08-17T08:36:03;6.60;;;3.83;;
17365;SDS011;8800;50.118;9.900;2023-08-17T08:38:31;4.85;;;3.20;;
17365;SDS011;8800;50.118;9.900;2023-08-17T08:40:58;5.35;;;3.60;;
17365;SDS011;8800;50.118;9.900;2023-08-17T08:43:24;4.10;;;3.13;;
17365;SDS011;8800;50.118;9.900;2023-08-17T08:45:51;6.18;;;3.63;;
17365;SDS011;8800;50.118;9.900;2023-08-17T08:48:18;3.83;;;3.30;;
17365;SDS011;8800;50.118;9.900;2023-08-17T08:50:46;5.20;;;3.97;;
17365;SDS011;8800;50.118;9.900;2023-08-17T08:53:15;5.70;;;3.75;;
17365;SDS011;8800;50.118;9.900;2023-08-17T08:55:44;6.80;;;3.95;;
17365;SDS011;8800;50.118;9.900;2023-08-17T08:58:11;6.25;;;3.88;;
17365;SDS011;8800;50.118;9.900;2023-08-17T09:00:37;6.65;;;4.00;;
17365;SDS011;8800;50.118;9.900;2023-08-17T09:03:04;10.70;;;3.97;;
17365;SDS011;8800;50.118;9.900;2023-08-17T09:05:31;5.65;;;3.92;;
17365;SDS011;8800;50.118;9.900;2023-08-17T09:08:02;6.30;;;4.00;;
17365;SDS011;8800;50.118;9.900;2023-08-17T09:10:28;6.65;;;3.97;;
17365;SDS011;8800;50.118;9.900;2023-08-17T09:12:55;6.60;;;3.95;;
17365;SDS011;8800;50.118;9.900;2023-08-17T09:15:35;6.82;;;4.40;;
17365;SDS011;8800;50.118;9.900;2023-08-17T09:18:02;5.45;;;3.83;;
17365;SDS011;8800;50.118;9.900;2023-08-17T09:20:35;5.43;;;3.78;;
17365;SDS011;8800;50.118;9.900;2023-08-17T09:23:04;6.50;;;4.15;;
17365;SDS011;8800;50.118;9.900;2023-08-17T09:25:30;5.38;;;4.20;;
17365;SDS011;8800;50.118;9.900;2023-08-17T09:27:59;5.35;;;3.80;;
17365;SDS011;8800;50.118;9.900;2023-08-17T09:30:25;9.05;;;4.50;;
17365;SDS011;8800;50.118;9.900;2023-08-17T09:32:52;6.38;;;4.55;;
17365;SDS011;8800;50.118;9.900;2023-08-17T09:35:18;7.63;;;4.47;;
17365;SDS011;8800;50.118;9.900;2023-08-17T09:37:45;7.70;;;4.38;;
17365;SDS011;8800;50.118;9.900;2023-08-17T09:40:13;5.80;;;4.15;;
17365;SDS011;8800;50.118;9.900;2023-08-17T09:42:40;6.03;;;4.05;;
17365;SDS011;8800;50.118;9.900;2023-08-17T09:45:07;7.40;;;4.57;;
17365;SDS011;8800;50.118;9.900;2023-08-17T09:47:34;7.63;;;4.18;;
17365;SDS011;8800;50.118;9.900;2023-08-17T09:50:03;5.93;;;4.55;;
17365;SDS011;8800;50.118;9.900;2023-08-17T09:52:31;7.40;;;4.72;;
17365;SDS011;8800;50.118;9.900;2023-08-17T09:54:58;6.95;;;4.90;;
17365;SDS011;8800;50.118;9.900;2023-08-17T09:57:30;5.53;;;4.68;;
17365;SDS011;8800;50.118;9.900;2023-08-17T09:59:57;7.75;;;5.20;;
17365;SDS011;8800;50.118;9.900;2023-08-17T10:02:23;8.13;;;5.30;;
17365;SDS011;8800;50.118;9.900;2023-08-17T10:04:51;5.47;;;4.72;;
17365;SDS011;8800;50.118;9.900;2023-08-17T10:07:18;10.90;;;5.15;;
17365;SDS011;8800;50.118;9.900;2023-08-17T10:09:47;9.73;;;4.75;;
17365;SDS011;8800;50.118;9.900;2023-08-17T10:12:15;6.18;;;5.57;;
17365;SDS011;8800;50.118;9.900;2023-08-17T10:14:45;8.82;;;5.20;;
17365;SDS011;8800;50.118;9.900;2023-08-17T10:17:12;6.43;;;5.07;;
17365;SDS011;8800;50.118;9.900;2023-08-17T10:19:42;6.93;;;4.88;;
17365;SDS011;8800;50.118;9.900;2023-08-17T10:22:11;6.80;;;5.22;;
17365;SDS011;8800;50.118;9.900;2023-08-17T10:24:39;6.88;;;5.00;;
17365;SDS011;8800;50.118;9.900;2023-08-17T10:27:05;7.22;;;5.10;;
17365;SDS011;8800;50.118;9.900;2023-08-17T10:29:32;7.55;;;5.18;;
17365;SDS011;8800;50.118;9.900;2023-08-17T10:32:00;7.70;;;4.63;;
17365;SDS011;8800;50.118;9.900;2023-08-17T10:34:27;5.65;;;4.65;;
17365;SDS011;8800;50.118;9.900;2023-08-17T10:36:54;6.63;;;5.38;;
17365;SDS011;8800;50.118;9.900;2023-08-17T10:39:23;5.90;;;5.18;;
17365;SDS011;8800;50.118;9.900;2023-08-17T10:41:50;6.78;;;5.20;;
17365;SDS011;8800;50.118;9.900;2023-08-17T10:44:17;6.18;;;5.20;;
17365;SDS011;8800;50.118;9.900;2023-08-17T10:46:44;6.78;;;5.53;;
17365;SDS011;8800;50.118;9.900;2023-08-17T10:49:25;6.38;;;5.43;;
17365;SDS011;8800;50.118;9.900;2023-08-17T10:52:04;8.80;;;5.38;;
17365;SDS011;8800;50.118;9.900;2023-08-17T10:54:36;7.57;;;5.60;;
17365;SDS011;8800;50.118;9.900;2023-08-17T10:59:44;8.88;;;4.93;;
17365;SDS011;8800;50.118;9.900;2023-08-17T11:02:10;6.03;;;5.28;;
17365;SDS011;8800;50.118;9.900;2023-08-17T11:04:40;6.43;;;5.70;;
17365;SDS011;8800;50.118;9.900;2023-08-17T11:07:06;6.82;;;5.22;;
17365;SDS011;8800;50.118;9.900;2023-08-17T11:09:39;10.13;;;5.30;;
17365;SDS011;8800;50.118;9.900;2023-08-17T11:12:09;7.03;;;5.28;;
17365;SDS011;8800;50.118;9.900;2023-08-17T11:14:50;6.50;;;5.03;;
17365;SDS011;8800;50.118;9.900;2023-08-17T11:17:19;5.18;;;4.68;;
17365;SDS011;8800;50.118;9.900;2023-08-17T11:19:47;7.35;;;4.97;;
17365;SDS011;8800;50.118;9.900;2023-08-17T11:22:16;7.82;;;5.00;;
17365;SDS011;8800;50.118;9.900;2023-08-17T11:24:43;5.50;;;4.90;;
17365;SDS011;8800;50.118;9.900;2023-08-17T11:27:10;6.70;;;4.75;;
17365;SDS011;8800;50.118;9.900;2023-08-17T11:29:36;7.25;;;4.53;;
17365;SDS011;8800;50.118;9.900;2023-08-17T11:32:03;4.75;;;4.07;;
17365;SDS011;8800;50.118;9.900;2023-08-17T11:34:30;5.65;;;4.32;;
17365;SDS011;8800;50.118;9.900;2023-08-17T11:36:58;6.38;;;4.03;;
17365;SDS011;8800;50.118;9.900;2023-08-17T11:39:25;7.70;;;4.97;;
17365;SDS011;8800;50.118;9.900;2023-08-17T11:41:51;8.82;;;4.65;;
17365;SDS011;8800;50.118;9.900;2023-08-17T11:44:18;6.10;;;4.40;;
17365;SDS011;8800;50.118;9.900;2023-08-17T11:46:46;4.93;;;4.20;;
17365;SDS011;8800;50.118;9.900;2023-08-17T11:49:16;6.05;;;4.55;;
17365;SDS011;8800;50.118;9.900;2023-08-17T11:51:43;8.82;;;4.40;;
17365;SDS011;8800;50.118;9.900;2023-08-17T11:54:11;6.20;;;4.50;;
17365;SDS011;8800;50.118;9.900;2023-08-17T11:56:38;8.20;;;4.38;;
17365;SDS011;8800;50.118;9.900;2023-08-17T11:59:10;6.95;;;4.40;;
17365;SDS011;8800;50.118;9.900;2023-08-17T12:01:39;7.70;;;4.70;;
17365;SDS011;8800;50.118;9.900;2023-08-17T12:04:05;5.55;;;4.50;;
17365;SDS011;8800;50.118;9.900;2023-08-17T12:06:32;6.65;;;4.63;;
17365;SDS011;8800;50.118;9.900;2023-08-17T12:08:59;6.57;;;4.78;;
17365;SDS011;8800;50.118;9.900;2023-08-17T12:11:27;6.50;;;4.60;;
17365;SDS011;8800;50.118;9.900;2023-08-17T12:13:53;8.98;;;4.90;;
17365;SDS011;8800;50.118;9.900;2023-08-17T12:16:20;9.15;;;4.88;;
17365;SDS011;8800;50.118;9.900;2023-08-17T12:18:47;9.25;;;5.40;;
17365;SDS011;8800;50.118;9.900;2023-08-17T12:21:15;7.95;;;5.30;;
17365;SDS011;8800;50.118;9.900;2023-08-17T12:23:41;9.50;;;4.70;;
17365;SDS011;8800;50.118;9.900;2023-08-17T12:26:08;6.95;;;4.30;;
17365;SDS011;8800;50.118;9.900;2023-08-17T12:28:36;5.50;;;4.45;;
17365;SDS011;8800;50.118;9.900;2023-08-17T12:31:05;5.20;;;4.47;;
17365;SDS011;8800;50.118;9.900;2023-08-17T12:33:32;7.05;;;5.05;;
17365;SDS011;8800;50.118;9.900;2023-08-17T12:35:58;5.38;;;4.15;;
17365;SDS011;8800;50.118;9.900;2023-08-17T12:38:25;6.65;;;4.32;;
17365;SDS011;8800;50.118;9.900;2023-08-17T12:40:51;7.50;;;4.60;;
17365;SDS011;8800;50.118;9.900;2023-08-17T12:43:18;5.68;;;4.40;;
17365;SDS011;8800;50.118;9.900;2023-08-17T12:45:46;5.30;;;4.32;;
17365;SDS011;8800;50.118;9.900;2023-08-17T12:48:12;6.93;;;4.32;;
17365;SDS011;8800;50.118;9.900;2023-08-17T12:50:38;5.68;;;4.38;;
17365;SDS011;8800;50.118;9.900;2023-08-17T12:53:05;7.25;;;4.25;;
17365;SDS011;8800;50.118;9.900;2023-08-17T12:55:32;4.38;;;3.97;;
17365;SDS011;8800;50.118;9.900;2023-08-17T12:57:58;5.85;;;3.92;;
17365;SDS011;8800;50.118;9.900;2023-08-17T13:00:25;5.05;;;4.20;;
17365;SDS011;8800;50.118;9.900;2023-08-17T13:02:53;6.78;;;4.15;;
17365;SDS011;8800;50.118;9.900;2023-08-17T13:05:19;5.72;;;4.00;;
17365;SDS011;8800;50.118;9.900;2023-08-17T13:07:46;4.55;;;3.95;;
17365;SDS011;8800;50.118;9.900;2023-08-17T13:10:12;4.35;;;3.60;;
17365;SDS011;8800;50.118;9.900;2023-08-17T13:12:39;5.47;;;4.07;;
17365;SDS011;8800;50.118;9.900;2023-08-17T13:15:05;5.88;;;4.03;;
17365;SDS011;8800;50.118;9.900;2023-08-17T13:17:32;4.25;;;3.78;;
17365;SDS011;8800;50.118;9.900;2023-08-17T13:20:00;6.82;;;4.10;;
17365;SDS011;8800;50.118;9.900;2023-08-17T13:22:26;4.65;;;3.75;;
17365;SDS011;8800;50.118;9.900;2023-08-17T13:24:53;4.30;;;3.80;;
17365;SDS011;8800;50.118;9.900;2023-08-17T13:27:19;4.40;;;3.88;;
17365;SDS011;8800;50.118;9.900;2023-08-17T13:29:46;3.90;;;3.35;;
17365;SDS011;8800;50.118;9.900;2023-08-17T13:32:12;4.43;;;3.42;;
17365;SDS011;8800;50.118;9.900;2023-08-17T13:34:38;5.22;;;4.22;;
17365;SDS011;8800;50.118;9.900;2023-08-17T13:37:06;7.30;;;3.67;;
17365;SDS011;8800;50.118;9.900;2023-08-17T13:39:33;7.25;;;3.78;;
17365;SDS011;8800;50.118;9.900;2023-08-17T13:41:59;4.95;;;3.80;;
17365;SDS011;8800;50.118;9.900;2023-08-17T13:44:26;4.43;;;3.97;;
17365;SDS011;8800;50.118;9.900;2023-08-17T13:46:53;6.00;;;3.70;;
17365;SDS011;8800;50.118;9.900;2023-08-17T13:49:19;4.13;;;3.58;;
17365;SDS011;8800;50.118;9.900;2023-08-17T13:51:46;4.00;;;3.63;;
17365;SDS011;8800;50.118;9.900;2023-08-17T13:54:14;7.88;;;3.60;;
17365;SDS011;8800;50.118;9.900;2023-08-17T13:56:40;5.88;;;3.92;;
17365;SDS011;8800;50.118;9.900;2023-08-17T13:59:08;4.25;;;3.63;;
17365;SDS011;8800;50.118;9.900;2023-08-17T14:01:35;6.65;;;4.00;;
17365;SDS011;8800;50.118;9.900;2023-08-17T14:04:01;5.55;;;3.55;;
17365;SDS011;8800;50.118;9.900;2023-08-17T14:06:29;4.82;;;3.80;;
17365;SDS011;8800;50.118;9.900;2023-08-17T14:08:56;4.13;;;3.72;;
17365;SDS011;8800;50.118;9.900;2023-08-17T14:11:24;3.92;;;3.63;;
17365;SDS011;8800;50.118;9.900;2023-08-17T14:13:50;4.75;;;3.80;;
17365;SDS011;8800;50.118;9.900;2023-08-17T14:16:17;4.82;;;3.60;;
17365;SDS011;8800;50.118;9.900;2023-08-17T14:18:43;7.10;;;3.83;;
17365;SDS011;8800;50.118;9.900;2023-08-17T14:21:10;6.65;;;3.90;;
17365;SDS011;8800;50.118;9.900;2023-08-17T14:23:37;4.35;;;3.70;;
17365;SDS011;8800;50.118;9.900;2023-08-17T14:26:04;5.35;;;3.80;;
17365;SDS011;8800;50.118;9.900;2023-08-17T14:28:33;4.25;;;3.70;;
17365;SDS011;8800;50.118;9.900;2023-08-17T14:30:59;4.03;;;3.63;;
17365;SDS011;8800;50.118;9.900;2023-08-17T14:33:26;4.50;;;4.00;;
17365;SDS011;8800;50.118;9.900;2023-08-17T14:35:53;3.78;;;3.47;;
17365;SDS011;8800;50.118;9.900;2023-08-17T14:38:19;4.05;;;3.72;;
17365;SDS011;8800;50.118;9.900;2023-08-17T14:40:47;4.90;;;3.70;;
17365;SDS011;8800;50.118;9.900;2023-08-17T14:43:14;5.07;;;3.90;;
17365;SDS011;8800;50.118;9.900;2023-08-17T14:45:42;8.90;;;4.32;;
17365;SDS011;8800;50.118;9.900;2023-08-17T14:48:09;5.53;;;3.67;;
17365;SDS011;8800;50.118;9.900;2023-08-17T14:50:36;5.18;;;4.00;;
17365;SDS011;8800;50.118;9.900;2023-08-17T14:53:03;4.35;;;3.90;;
17365;SDS011;8800;50.118;9.900;2023-08-17T14:55:32;6.50;;;4.10;;
17365;SDS011;8800;50.118;9.900;2023-08-17T14:57:58;5.32;;;3.75;;
17365;SDS011;8800;50.118;9.900;2023-08-17T15:00:25;5.15;;;3.90;;
17365;SDS011;8800;50.118;9.900;2023-08-17T15:02:55;6.35;;;4.07;;